sensor_id;sensor_type;location;lat;lon;timestamp;P1;P2;P0
44045;PMS7003;29709;52.396;16.796;2023-05-18T00:02:49;0;0;0
44045;PMS7003;29709;52.396;16.796;2023-05-18T00:06:02;0;0;0
44045;PMS7003;29709;52.396;16.796;2023-05-18T00:09:18;0;0;0
44045;PMS7003;29709;52.396;16.796;2023-05-18T00:12:32;1;0;0
44045;PMS7003;29709;52.396;16.796;2023-05-18T00:15:45;0;0;0
44045;PMS7003;29709;52.396;16.796;2023-05-18T00:18:58;1;1;1
44045;PMS7003;29709;52.396;16.796;2023-05-18T00:22:11;1;1;1
44045;PMS7003;29709;52.396;16.796;2023-05-18T00:25:30;1;0;0
44045;PMS7003;29709;52.396;16.796;2023-05-18T00:28:43;3;2;1
44045;PMS7003;29709;52.396;16.796;2023-05-18T00:31:57;0;0;0
44045;PMS7003;29709;52.396;16.796;2023-05-18T00:35:10;1;0;0
44045;PMS7003;29709;52.396;16.796;2023-05-18T00:38:23;1;1;1
44045;PMS7003;29709;52.396;16.796;2023-05-18T00:41:37;1;1;0
44045;PMS7003;29709;52.396;16.796;2023-05-18T00:44:50;0;0;0
44045;PMS7003;29709;52.396;16.796;2023-05-18T00:48:04;2;0;0
44045;PMS7003;29709;52.396;16.796;2023-05-18T00:51:18;0;0;0
44045;PMS7003;29709;52.396;16.796;2023-05-18T00:54:34;0;0;0
44045;PMS7003;29709;52.396;16.796;2023-05-18T00:57:48;0;0;0
44045;PMS7003;29709;52.396;16.796;2023-05-18T01:01:03;0;0;0
44045;PMS7003;29709;52.396;16.796;2023-05-18T01:04:17;0;0;0
44045;PMS7003;29709;52.396;16.796;2023-05-18T01:07:39;0;0;0
44045;PMS7003;29709;52.396;16.796;2023-05-18T01:24:47;0;0;0
44045;PMS7003;29709;52.396;16.796;2023-05-18T01:28:02;0;0;0
44045;PMS7003;29709;52.396;16.796;2023-05-18T01:31:20;0;0;0
44045;PMS7003;29709;52.396;16.796;2023-05-18T01:34:33;0;0;0
44045;PMS7003;29709;52.396;16.796;2023-05-18T01:37:47;0;0;0
44045;PMS7003;29709;52.396;16.796;2023-05-18T01:44:28;0;0;0
44045;PMS7003;29709;52.396;16.796;2023-05-18T01:47:45;0;0;0
44045;PMS7003;29709;52.396;16.796;2023-05-18T01:51:01;0;0;0
44045;PMS7003;29709;52.396;16.796;2023-05-18T01:54:16;0;0;0
44045;PMS7003;29709;52.396;16.796;2023-05-18T01:57:32;0;0;0
44045;PMS7003;29709;52.396;16.796;2023-05-18T02:00:48;0;0;0
44045;PMS7003;29709;52.396;16.796;2023-05-18T02:04:06;1;0;0
44045;PMS7003;29709;52.396;16.796;2023-05-18T02:07:21;2;0;0
44045;PMS7003;29709;52.396;16.796;2023-05-18T02:10:34;1;0;0
44045;PMS7003;29709;52.396;16.796;2023-05-18T02:13:47;0;0;0
44045;PMS7003;29709;52.396;16.796;2023-05-18T02:17:00;0;0;0
44045;PMS7003;29709;52.396;16.796;2023-05-18T02:20:14;0;0;0
44045;PMS7003;29709;52.396;16.796;2023-05-18T02:23:30;0;0;0
44045;PMS7003;29709;52.396;16.796;2023-05-18T02:26:43;0;0;0
44045;PMS7003;29709;52.396;16.796;2023-05-18T02:29:56;1;0;0
44045;PMS7003;29709;52.396;16.796;2023-05-18T02:33:10;0;0;0
44045;PMS7003;29709;52.396;16.796;2023-05-18T02:36:24;0;0;0
44045;PMS7003;29709;52.396;16.796;2023-05-18T02:39:38;0;0;0
44045;PMS7003;29709;52.396;16.796;2023-05-18T02:42:51;0;0;0
44045;PMS7003;29709;52.396;16.796;2023-05-18T02:46:04;0;0;0
44045;PMS7003;29709;52.396;16.796;2023-05-18T02:49:18;1;1;0
44045;PMS7003;29709;52.396;16.796;2023-05-18T02:52:31;0;0;0
44045;PMS7003;29709;52.396;16.796;2023-05-18T02:55:45;0;0;0
44045;PMS7003;29709;52.396;16.796;2023-05-18T02:59:00;1;0;0
44045;PMS7003;29709;52.396;16.796;2023-05-18T03:02:14;0;0;0
44045;PMS7003;29709;52.396;16.796;2023-05-18T03:05:28;0;0;0
44045;PMS7003;29709;52.396;16.796;2023-05-18T03:08:41;0;0;0
44045;PMS7003;29709;52.396;16.796;2023-05-18T03:11:54;0;0;0
44045;PMS7003;29709;52.396;16.796;2023-05-18T03:15:08;0;0;0
44045;PMS7003;29709;52.396;16.796;2023-05-18T03:18:23;1;0;0
44045;PMS7003;29709;52.396;16.796;2023-05-18T03:21:37;0;0;0
44045;PMS7003;29709;52.396;16.796;2023-05-18T03:24:50;0;0;0
44045;PMS7003;29709;52.396;16.796;2023-05-18T03:28:07;0;0;0
44045;PMS7003;29709;52.396;16.796;2023-05-18T03:31:20;0;0;0
44045;PMS7003;29709;52.396;16.796;2023-05-18T03:34:33;0;0;0
44045;PMS7003;29709;52.396;16.796;2023-05-18T03:37:48;0;0;0
44045;PMS7003;29709;52.396;16.796;2023-05-18T03:41:01;0;0;0
44045;PMS7003;29709;52.396;16.796;2023-05-18T03:44:15;0;0;0
44045;PMS7003;29709;52.396;16.796;2023-05-18T03:47:28;0;0;0
44045;PMS7003;29709;52.396;16.796;2023-05-18T03:50:42;1;1;0
44045;PMS7003;29709;52.396;16.796;2023-05-18T03:53:55;0;0;0
44045;PMS7003;29709;52.396;16.796;2023-05-18T03:57:09;0;0;0
44045;PMS7003;29709;52.396;16.796;2023-05-18T04:00:23;2;0;0
44045;PMS7003;29709;52.396;16.796;2023-05-18T04:03:36;0;0;0
44045;PMS7003;29709;52.396;16.796;2023-05-18T04:06:49;0;0;0
44045;PMS7003;29709;52.396;16.796;2023-05-18T04:10:03;0;0;0
44045;PMS7003;29709;52.396;16.796;2023-05-18T04:13:17;0;0;0
44045;PMS7003;29709;52.396;16.796;2023-05-18T04:16:30;1;0;0
44045;PMS7003;29709;52.396;16.796;2023-05-18T04:19:50;1;0;0
44045;PMS7003;29709;52.396;16.796;2023-05-18T04:23:03;0;0;0
44045;PMS7003;29709;52.396;16.796;2023-05-18T04:26:16;0;0;0
44045;PMS7003;29709;52.396;16.796;2023-05-18T04:29:31;1;0;0
44045;PMS7003;29709;52.396;16.796;2023-05-18T04:32:44;0;0;0
44045;PMS7003;29709;52.396;16.796;2023-05-18T04:35:57;0;0;0
44045;PMS7003;29709;52.396;16.796;2023-05-18T04:39:16;0;0;0
44045;PMS7003;29709;52.396;16.796;2023-05-18T04:42:29;2;1;1
44045;PMS7003;29709;52.396;16.796;2023-05-18T04:45:43;2;1;0
44045;PMS7003;29709;52.396;16.796;2023-05-18T04:49:02;0;0;0
44045;PMS7003;29709;52.396;16.796;2023-05-18T04:52:15;1;0;0
44045;PMS7003;29709;52.396;16.796;2023-05-18T04:55:29;2;2;1
44045;PMS7003;29709;52.396;16.796;2023-05-18T04:58:42;1;1;1
44045;PMS7003;29709;52.396;16.796;2023-05-18T05:01:59;1;1;0
44045;PMS7003;29709;52.396;16.796;2023-05-18T05:05:12;1;1;1
44045;PMS7003;29709;52.396;16.796;2023-05-18T05:08:26;1;1;0
44045;PMS7003;29709;52.396;16.796;2023-05-18T05:11:39;1;1;0
44045;PMS7003;29709;52.396;16.796;2023-05-18T05:14:55;0;0;0
44045;PMS7003;29709;52.396;16.796;2023-05-18T05:18:08;0;0;0
44045;PMS7003;29709;52.396;16.796;2023-05-18T05:21:22;0;0;0
44045;PMS7003;29709;52.396;16.796;2023-05-18T05:24:35;0;0;0
44045;PMS7003;29709;52.396;16.796;2023-05-18T05:27:48;0;0;0
44045;PMS7003;29709;52.396;16.796;2023-05-18T05:31:02;0;0;0
44045;PMS7003;29709;52.396;16.796;2023-05-18T05:34:15;0;0;0
44045;PMS7003;29709;52.396;16.796;2023-05-18T05:37:29;0;0;0
44045;PMS7003;29709;52.396;16.796;2023-05-18T05:40:42;0;0;0
44045;PMS7003;29709;52.396;16.796;2023-05-18T05:43:55;0;0;0
44045;PMS7003;29709;52.396;16.796;2023-05-18T05:47:08;0;0;0
44045;PMS7003;29709;52.396;16.796;2023-05-18T05:50:22;0;0;0
44045;PMS7003;29709;52.396;16.796;2023-05-18T05:53:35;0;0;0
44045;PMS7003;29709;52.396;16.796;2023-05-18T05:56:48;0;0;0
44045;PMS7003;29709;52.396;16.796;2023-05-18T06:00:02;0;0;0
44045;PMS7003;29709;52.396;16.796;2023-05-18T06:03:16;1;0;0
44045;PMS7003;29709;52.396;16.796;2023-05-18T06:06:29;0;0;0
44045;PMS7003;29709;52.396;16.796;2023-05-18T06:09:43;0;0;0
44045;PMS7003;29709;52.396;16.796;2023-05-18T06:12:56;0;0;0
44045;PMS7003;29709;52.396;16.796;2023-05-18T06:16:10;0;0;0
44045;PMS7003;29709;52.396;16.796;2023-05-18T06:19:23;0;0;0
44045;PMS7003;29709;52.396;16.796;2023-05-18T06:22:36;1;0;0
44045;PMS7003;29709;52.396;16.796;2023-05-18T06:25:49;0;0;0
44045;PMS7003;29709;52.396;16.796;2023-05-18T06:29:03;0;0;0
44045;PMS7003;29709;52.396;16.796;2023-05-18T06:32:17;0;0;0
44045;PMS7003;29709;52.396;16.796;2023-05-18T06:35:32;0;0;0
44045;PMS7003;29709;52.396;16.796;2023-05-18T06:38:45;0;0;0
44045;PMS7003;29709;52.396;16.796;2023-05-18T06:41:58;0;0;0
44045;PMS7003;29709;52.396;16.796;2023-05-18T06:45:12;0;0;0
44045;PMS7003;29709;52.396;16.796;2023-05-18T06:48:26;0;0;0
44045;PMS7003;29709;52.396;16.796;2023-05-18T06:51:40;0;0;0
44045;PMS7003;29709;52.396;16.796;2023-05-18T06:54:55;0;0;0
44045;PMS7003;29709;52.396;16.796;2023-05-18T06:58:09;0;0;0
44045;PMS7003;29709;52.396;16.796;2023-05-18T07:01:22;0;0;0
44045;PMS7003;29709;52.396;16.796;2023-05-18T07:04:35;0;0;0
44045;PMS7003;29709;52.396;16.796;2023-05-18T07:07:49;0;0;0
44045;PMS7003;29709;52.396;16.796;2023-05-18T07:11:02;0;0;0
44045;PMS7003;29709;52.396;16.796;2023-05-18T07:14:16;0;0;0
44045;PMS7003;29709;52.396;16.796;2023-05-18T07:17:30;0;0;0
44045;PMS7003;29709;52.396;16.796;2023-05-18T07:20:43;0;0;0
44045;PMS7003;29709;52.396;16.796;2023-05-18T07:23:56;0;0;0
44045;PMS7003;29709;52.396;16.796;2023-05-18T07:27:10;0;0;0
44045;PMS7003;29709;52.396;16.796;2023-05-18T07:30:23;0;0;0
44045;PMS7003;29709;52.396;16.796;2023-05-18T07:33:38;0;0;0
44045;PMS7003;29709;52.396;16.796;2023-05-18T07:36:51;0;0;0
44045;PMS7003;29709;52.396;16.796;2023-05-18T07:40:05;0;0;0
44045;PMS7003;29709;52.396;16.796;2023-05-18T07:43:21;0;0;0
44045;PMS7003;29709;52.396;16.796;2023-05-18T07:46:34;0;0;0
44045;PMS7003;29709;52.396;16.796;2023-05-18T07:49:47;0;0;0
44045;PMS7003;29709;52.396;16.796;2023-05-18T07:53:01;0;0;0
44045;PMS7003;29709;52.396;16.796;2023-05-18T07:56:14;1;0;0
44045;PMS7003;29709;52.396;16.796;2023-05-18T07:59:27;0;0;0
44045;PMS7003;29709;52.396;16.796;2023-05-18T08:02:41;0;0;0
44045;PMS7003;29709;52.396;16.796;2023-05-18T08:05:57;0;0;0
44045;PMS7003;29709;52.396;16.796;2023-05-18T08:09:12;0;0;0
44045;PMS7003;29709;52.396;16.796;2023-05-18T08:12:25;0;0;0
44045;PMS7003;29709;52.396;16.796;2023-05-18T08:15:38;0;0;0
44045;PMS7003;29709;52.396;16.796;2023-05-18T08:18:55;0;0;0
44045;PMS7003;29709;52.396;16.796;2023-05-18T08:22:08;0;0;0
44045;PMS7003;29709;52.396;16.796;2023-05-18T08:27:49;0;0;0
44045;PMS7003;29709;52.396;16.796;2023-05-18T08:31:02;0;0;0
44045;PMS7003;29709;52.396;16.796;2023-05-18T08:34:15;0;0;0
44045;PMS7003;29709;52.396;16.796;2023-05-18T08:37:29;1;0;0
44045;PMS7003;29709;52.396;16.796;2023-05-18T08:40:47;0;0;0
44045;PMS7003;29709;52.396;16.796;2023-05-18T08:44:08;3;0;0
44045;PMS7003;29709;52.396;16.796;2023-05-18T08:47:28;0;0;0
44045;PMS7003;29709;52.396;16.796;2023-05-18T08:50:42;0;0;0
44045;PMS7003;29709;52.396;16.796;2023-05-18T08:53:56;0;0;0
44045;PMS7003;29709;52.396;16.796;2023-05-18T08:57:11;0;0;0
44045;PMS7003;29709;52.396;16.796;2023-05-18T09:00:26;0;0;0
44045;PMS7003;29709;52.396;16.796;2023-05-18T09:03:40;0;0;0
44045;PMS7003;29709;52.396;16.796;2023-05-18T09:06:54;0;0;0
44045;PMS7003;29709;52.396;16.796;2023-05-18T09:10:11;0;0;0
44045;PMS7003;29709;52.396;16.796;2023-05-18T09:13:27;0;0;0
44045;PMS7003;29709;52.396;16.796;2023-05-18T09:16:42;0;0;0
44045;PMS7003;29709;52.396;16.796;2023-05-18T09:19:55;0;0;0
44045;PMS7003;29709;52.396;16.796;2023-05-18T09:23:08;0;0;0
44045;PMS7003;29709;52.396;16.796;2023-05-18T09:26:23;0;0;0
44045;PMS7003;29709;52.396;16.796;2023-05-18T09:29:50;0;0;0
44045;PMS7003;29709;52.396;16.796;2023-05-18T09:33:02;0;0;0
44045;PMS7003;29709;52.396;16.796;2023-05-18T09:36:16;0;0;0
44045;PMS7003;29709;52.396;16.796;2023-05-18T09:39:38;0;0;0
44045;PMS7003;29709;52.396;16.796;2023-05-18T09:42:51;0;0;0
44045;PMS7003;29709;52.396;16.796;2023-05-18T09:46:05;0;0;0
44045;PMS7003;29709;52.396;16.796;2023-05-18T09:49:20;0;0;0
44045;PMS7003;29709;52.396;16.796;2023-05-18T09:55:55;0;0;0
44045;PMS7003;29709;52.396;16.796;2023-05-18T09:59:13;0;0;0
44045;PMS7003;29709;52.396;16.796;2023-05-18T10:02:29;0;0;0
44045;PMS7003;29709;52.396;16.796;2023-05-18T10:05:42;1;0;0
44045;PMS7003;29709;52.396;16.796;2023-05-18T10:08:56;0;0;0
44045;PMS7003;29709;52.396;16.796;2023-05-18T10:12:11;0;0;0
44045;PMS7003;29709;52.396;16.796;2023-05-18T10:15:25;0;0;0
44045;PMS7003;29709;52.396;16.796;2023-05-18T10:18:38;0;0;0
44045;PMS7003;29709;52.396;16.796;2023-05-18T10:21:53;0;0;0
44045;PMS7003;29709;52.396;16.796;2023-05-18T10:25:07;0;0;0
44045;PMS7003;29709;52.396;16.796;2023-05-18T10:28:27;0;0;0
44045;PMS7003;29709;52.396;16.796;2023-05-18T10:31:44;0;0;0
44045;PMS7003;29709;52.396;16.796;2023-05-18T10:34:59;0;0;0
44045;PMS7003;29709;52.396;16.796;2023-05-18T10:38:24;1;0;0
44045;PMS7003;29709;52.396;16.796;2023-05-18T10:41:36;0;0;0
44045;PMS7003;29709;52.396;16.796;2023-05-18T10:44:51;0;0;0
44045;PMS7003;29709;52.396;16.796;2023-05-18T10:48:06;0;0;0
44045;PMS7003;29709;52.396;16.796;2023-05-18T10:51:22;2;0;0
44045;PMS7003;29709;52.396;16.796;2023-05-18T10:54:37;0;0;0
44045;PMS7003;29709;52.396;16.796;2023-05-18T10:57:55;0;0;0
44045;PMS7003;29709;52.396;16.796;2023-05-18T11:01:15;0;0;0
44045;PMS7003;29709;52.396;16.796;2023-05-18T11:04:28;0;0;0
44045;PMS7003;29709;52.396;16.796;2023-05-18T11:07:43;0;0;0
44045;PMS7003;29709;52.396;16.796;2023-05-18T11:11:01;0;0;0
44045;PMS7003;29709;52.396;16.796;2023-05-18T11:17:39;0;0;0
44045;PMS7003;29709;52.396;16.796;2023-05-18T11:20:52;0;0;0
44045;PMS7003;29709;52.396;16.796;2023-05-18T11:27:31;0;0;0
44045;PMS7003;29709;52.396;16.796;2023-05-18T11:30:45;0;0;0
44045;PMS7003;29709;52.396;16.796;2023-05-18T11:34:00;0;0;0
44045;PMS7003;29709;52.396;16.796;2023-05-18T11:37:46;0;0;0
44045;PMS7003;29709;52.396;16.796;2023-05-18T11:40:49;0;0;0
44045;PMS7003;29709;52.396;16.796;2023-05-18T11:47:29;0;0;0
44045;PMS7003;29709;52.396;16.796;2023-05-18T11:50:44;0;0;0
44045;PMS7003;29709;52.396;16.796;2023-05-18T11:53:58;2;0;0
44045;PMS7003;29709;52.396;16.796;2023-05-18T11:57:13;0;0;0
44045;PMS7003;29709;52.396;16.796;2023-05-18T12:00:29;0;0;0
44045;PMS7003;29709;52.396;16.796;2023-05-18T12:03:42;0;0;0
44045;PMS7003;29709;52.396;16.796;2023-05-18T12:06:56;1;0;0
44045;PMS7003;29709;52.396;16.796;2023-05-18T12:10:10;0;0;0
44045;PMS7003;29709;52.396;16.796;2023-05-18T12:13:28;0;0;0
44045;PMS7003;29709;52.396;16.796;2023-05-18T12:16:42;0;0;0
44045;PMS7003;29709;52.396;16.796;2023-05-18T12:19:56;0;0;0
44045;PMS7003;29709;52.396;16.796;2023-05-18T12:23:09;0;0;0
44045;PMS7003;29709;52.396;16.796;2023-05-18T12:26:23;0;0;0
44045;PMS7003;29709;52.396;16.796;2023-05-18T12:29:38;0;0;0
44045;PMS7003;29709;52.396;16.796;2023-05-18T12:32:53;0;0;0
44045;PMS7003;29709;52.396;16.796;2023-05-18T12:36:11;0;0;0
44045;PMS7003;29709;52.396;16.796;2023-05-18T12:39:25;0;0;0
44045;PMS7003;29709;52.396;16.796;2023-05-18T12:42:39;0;0;0
44045;PMS7003;29709;52.396;16.796;2023-05-18T12:45:52;2;0;0
44045;PMS7003;29709;52.396;16.796;2023-05-18T12:49:06;0;0;0
44045;PMS7003;29709;52.396;16.796;2023-05-18T12:52:20;0;0;0
44045;PMS7003;29709;52.396;16.796;2023-05-18T12:55:33;1;0;0
44045;PMS7003;29709;52.396;16.796;2023-05-18T12:58:57;0;0;0
44045;PMS7003;29709;52.396;16.796;2023-05-18T13:02:23;0;0;0
44045;PMS7003;29709;52.396;16.796;2023-05-18T13:05:36;0;0;0
44045;PMS7003;29709;52.396;16.796;2023-05-18T13:08:52;0;0;0
44045;PMS7003;29709;52.396;16.796;2023-05-18T13:12:07;0;0;0
44045;PMS7003;29709;52.396;16.796;2023-05-18T13:15:21;0;0;0
44045;PMS7003;29709;52.396;16.796;2023-05-18T13:18:36;0;0;0
44045;PMS7003;29709;52.396;16.796;2023-05-18T13:25:09;0;0;0
44045;PMS7003;29709;52.396;16.796;2023-05-18T13:28:22;0;0;0
44045;PMS7003;29709;52.396;16.796;2023-05-18T13:31:35;0;0;0
44045;PMS7003;29709;52.396;16.796;2023-05-18T13:34:48;0;0;0
44045;PMS7003;29709;52.396;16.796;2023-05-18T13:38:03;0;0;0
44045;PMS7003;29709;52.396;16.796;2023-05-18T13:41:17;0;0;0
44045;PMS7003;29709;52.396;16.796;2023-05-18T13:44:30;0;0;0
44045;PMS7003;29709;52.396;16.796;2023-05-18T13:47:43;0;0;0
44045;PMS7003;29709;52.396;16.796;2023-05-18T13:51:05;0;0;0
44045;PMS7003;29709;52.396;16.796;2023-05-18T13:54:18;0;0;0
44045;PMS7003;29709;52.396;16.796;2023-05-18T13:57:31;0;0;0
44045;PMS7003;29709;52.396;16.796;2023-05-18T14:00:45;0;0;0
44045;PMS7003;29709;52.396;16.796;2023-05-18T14:03:59;0;0;0
44045;PMS7003;29709;52.396;16.796;2023-05-18T14:07:12;0;0;0
44045;PMS7003;29709;52.396;16.796;2023-05-18T14:10:26;0;0;0
44045;PMS7003;29709;52.396;16.796;2023-05-18T14:13:39;0;0;0
44045;PMS7003;29709;52.396;16.796;2023-05-18T14:16:52;0;0;0
44045;PMS7003;29709;52.396;16.796;2023-05-18T14:20:06;0;0;0
44045;PMS7003;29709;52.396;16.796;2023-05-18T14:23:20;0;0;0
44045;PMS7003;29709;52.396;16.796;2023-05-18T14:26:35;0;0;0
44045;PMS7003;29709;52.396;16.796;2023-05-18T14:29:49;0;0;0
44045;PMS7003;29709;52.396;16.796;2023-05-18T14:33:02;0;0;0
44045;PMS7003;29709;52.396;16.796;2023-05-18T14:36:16;0;0;0
44045;PMS7003;29709;52.396;16.796;2023-05-18T14:39:29;0;0;0
44045;PMS7003;29709;52.396;16.796;2023-05-18T14:42:42;0;0;0
44045;PMS7003;29709;52.396;16.796;2023-05-18T14:45:56;0;0;0
44045;PMS7003;29709;52.396;16.796;2023-05-18T14:49:09;0;0;0
44045;PMS7003;29709;52.396;16.796;2023-05-18T14:52:22;0;0;0
44045;PMS7003;29709;52.396;16.796;2023-05-18T14:55:35;0;0;0
44045;PMS7003;29709;52.396;16.796;2023-05-18T14:58:49;0;0;0
44045;PMS7003;29709;52.396;16.796;2023-05-18T15:02:02;0;0;0
44045;PMS7003;29709;52.396;16.796;2023-05-18T15:05:16;0;0;0
44045;PMS7003;29709;52.396;16.796;2023-05-18T15:08:29;0;0;0
44045;PMS7003;29709;52.396;16.796;2023-05-18T15:11:43;1;0;0
44045;PMS7003;29709;52.396;16.796;2023-05-18T15:14:57;0;0;0
44045;PMS7003;29709;52.396;16.796;2023-05-18T15:18:11;0;0;0
44045;PMS7003;29709;52.396;16.796;2023-05-18T15:21:24;0;0;0
44045;PMS7003;29709;52.396;16.796;2023-05-18T15:24:37;0;0;0
44045;PMS7003;29709;52.396;16.796;2023-05-18T15:27:50;0;0;0
44045;PMS7003;29709;52.396;16.796;2023-05-18T15:31:05;0;0;0
44045;PMS7003;29709;52.396;16.796;2023-05-18T15:34:18;0;0;0
44045;PMS7003;29709;52.396;16.796;2023-05-18T15:37:31;0;0;0
44045;PMS7003;29709;52.396;16.796;2023-05-18T15:40:45;0;0;0
44045;PMS7003;29709;52.396;16.796;2023-05-18T15:43:59;1;0;0
44045;PMS7003;29709;52.396;16.796;2023-05-18T15:47:13;0;0;0
44045;PMS7003;29709;52.396;16.796;2023-05-18T15:50:26;0;0;0
44045;PMS7003;29709;52.396;16.796;2023-05-18T15:53:40;1;0;0
44045;PMS7003;29709;52.396;16.796;2023-05-18T15:56:54;0;0;0
44045;PMS7003;29709;52.396;16.796;2023-05-18T16:00:08;0;0;0
44045;PMS7003;29709;52.396;16.796;2023-05-18T16:03:21;0;0;0
44045;PMS7003;29709;52.396;16.796;2023-05-18T16:06:35;0;0;0
44045;PMS7003;29709;52.396;16.796;2023-05-18T16:09:48;0;0;0
44045;PMS7003;29709;52.396;16.796;2023-05-18T16:13:01;0;0;0
44045;PMS7003;29709;52.396;16.796;2023-05-18T16:16:17;1;0;0
44045;PMS7003;29709;52.396;16.796;2023-05-18T16:19:31;1;0;0
44045;PMS7003;29709;52.396;16.796;2023-05-18T16:22:48;0;0;0
44045;PMS7003;29709;52.396;16.796;2023-05-18T16:26:03;0;0;0
44045;PMS7003;29709;52.396;16.796;2023-05-18T16:29:18;0;0;0
44045;PMS7003;29709;52.396;16.796;2023-05-18T16:32:31;0;0;0
44045;PMS7003;29709;52.396;16.796;2023-05-18T16:35:46;0;0;0
44045;PMS7003;29709;52.396;16.796;2023-05-18T16:39:00;0;0;0
44045;PMS7003;29709;52.396;16.796;2023-05-18T16:42:14;0;0;0
44045;PMS7003;29709;52.396;16.796;2023-05-18T16:45:32;0;0;0
44045;PMS7003;29709;52.396;16.796;2023-05-18T16:48:45;1;0;0
44045;PMS7003;29709;52.396;16.796;2023-05-18T16:51:58;3;0;0
44045;PMS7003;29709;52.396;16.796;2023-05-18T16:55:12;0;0;0
44045;PMS7003;29709;52.396;16.796;2023-05-18T16:58:25;1;1;0
44045;PMS7003;29709;52.396;16.796;2023-05-18T17:01:38;1;0;0
44045;PMS7003;29709;52.396;16.796;2023-05-18T17:04:52;1;1;0
44045;PMS7003;29709;52.396;16.796;2023-05-18T17:08:07;0;0;0
44045;PMS7003;29709;52.396;16.796;2023-05-18T17:11:22;0;0;0
44045;PMS7003;29709;52.396;16.796;2023-05-18T17:14:38;0;0;0
44045;PMS7003;29709;52.396;16.796;2023-05-18T17:17:52;0;0;0
44045;PMS7003;29709;52.396;16.796;2023-05-18T17:21:05;1;0;0
44045;PMS7003;29709;52.396;16.796;2023-05-18T17:24:18;1;0;0
44045;PMS7003;29709;52.396;16.796;2023-05-18T17:27:32;3;2;2
44045;PMS7003;29709;52.396;16.796;2023-05-18T17:30:45;1;1;1
44045;PMS7003;29709;52.396;16.796;2023-05-18T17:33:58;4;3;3
44045;PMS7003;29709;52.396;16.796;2023-05-18T17:37:12;3;3;3
44045;PMS7003;29709;52.396;16.796;2023-05-18T17:40:25;1;1;1
44045;PMS7003;29709;52.396;16.796;2023-05-18T17:43:38;4;4;3
44045;PMS7003;29709;52.396;16.796;2023-05-18T17:46:51;4;3;2
44045;PMS7003;29709;52.396;16.796;2023-05-18T17:50:05;5;4;3
44045;PMS7003;29709;52.396;16.796;2023-05-18T17:53:19;2;2;2
44045;PMS7003;29709;52.396;16.796;2023-05-18T17:56:33;3;2;2
44045;PMS7003;29709;52.396;16.796;2023-05-18T17:59:47;2;1;1
44045;PMS7003;29709;52.396;16.796;2023-05-18T18:03:00;1;1;1
44045;PMS7003;29709;52.396;16.796;2023-05-18T18:06:13;3;1;0
44045;PMS7003;29709;52.396;16.796;2023-05-18T18:09:29;2;1;1
44045;PMS7003;29709;52.396;16.796;2023-05-18T18:12:42;3;1;1
44045;PMS7003;29709;52.396;16.796;2023-05-18T18:15:55;2;1;0
44045;PMS7003;29709;52.396;16.796;2023-05-18T18:19:09;1;0;0
44045;PMS7003;29709;52.396;16.796;2023-05-18T18:22:22;2;2;1
44045;PMS7003;29709;52.396;16.796;2023-05-18T18:25:35;1;1;1
44045;PMS7003;29709;52.396;16.796;2023-05-18T18:28:49;3;2;2
44045;PMS7003;29709;52.396;16.796;2023-05-18T18:32:03;2;2;2
44045;PMS7003;29709;52.396;16.796;2023-05-18T18:35:16;1;1;1
44045;PMS7003;29709;52.396;16.796;2023-05-18T18:38:30;3;2;1
44045;PMS7003;29709;52.396;16.796;2023-05-18T18:41:45;2;2;1
44045;PMS7003;29709;52.396;16.796;2023-05-18T18:44:58;2;1;1
44045;PMS7003;29709;52.396;16.796;2023-05-18T18:48:11;2;1;1
44045;PMS7003;29709;52.396;16.796;2023-05-18T18:51:24;3;2;2
44045;PMS7003;29709;52.396;16.796;2023-05-18T18:54:38;1;1;1
44045;PMS7003;29709;52.396;16.796;2023-05-18T18:57:51;2;2;2
44045;PMS7003;29709;52.396;16.796;2023-05-18T19:01:04;4;4;4
44045;PMS7003;29709;52.396;16.796;2023-05-18T19:04:18;3;3;2
44045;PMS7003;29709;52.396;16.796;2023-05-18T19:07:31;2;1;1
44045;PMS7003;29709;52.396;16.796;2023-05-18T19:10:45;3;2;1
44045;PMS7003;29709;52.396;16.796;2023-05-18T19:13:58;2;2;2
44045;PMS7003;29709;52.396;16.796;2023-05-18T19:17:12;2;2;1
44045;PMS7003;29709;52.396;16.796;2023-05-18T19:20:25;2;2;2
44045;PMS7003;29709;52.396;16.796;2023-05-18T19:23:38;3;2;2
44045;PMS7003;29709;52.396;16.796;2023-05-18T19:26:51;3;2;1
44045;PMS7003;29709;52.396;16.796;2023-05-18T19:30:05;2;1;1
44045;PMS7003;29709;52.396;16.796;2023-05-18T19:33:19;4;2;2
44045;PMS7003;29709;52.396;16.796;2023-05-18T19:36:32;3;3;3
44045;PMS7003;29709;52.396;16.796;2023-05-18T19:39:47;6;3;3
44045;PMS7003;29709;52.396;16.796;2023-05-18T19:43:00;3;3;2
44045;PMS7003;29709;52.396;16.796;2023-05-18T19:46:14;3;3;3
44045;PMS7003;29709;52.396;16.796;2023-05-18T19:49:28;2;2;2
44045;PMS7003;29709;52.396;16.796;2023-05-18T19:52:43;3;3;2
44045;PMS7003;29709;52.396;16.796;2023-05-18T19:55:56;4;3;1
44045;PMS7003;29709;52.396;16.796;2023-05-18T19:59:09;4;3;3
44045;PMS7003;29709;52.396;16.796;2023-05-18T20:02:22;6;3;2
44045;PMS7003;29709;52.396;16.796;2023-05-18T20:05:35;2;2;2
44045;PMS7003;29709;52.396;16.796;2023-05-18T20:08:50;5;4;3
44045;PMS7003;29709;52.396;16.796;2023-05-18T20:12:03;8;6;5
44045;PMS7003;29709;52.396;16.796;2023-05-18T20:15:17;6;6;5
44045;PMS7003;29709;52.396;16.796;2023-05-18T20:18:31;12;11;8
44045;PMS7003;29709;52.396;16.796;2023-05-18T20:21:46;7;5;4
44045;PMS7003;29709;52.396;16.796;2023-05-18T20:25:00;5;5;5
44045;PMS7003;29709;52.396;16.796;2023-05-18T20:28:16;11;10;8
44045;PMS7003;29709;52.396;16.796;2023-05-18T20:31:30;18;14;12
44045;PMS7003;29709;52.396;16.796;2023-05-18T20:34:43;13;12;10
44045;PMS7003;29709;52.396;16.796;2023-05-18T20:37:57;11;10;7
44045;PMS7003;29709;52.396;16.796;2023-05-18T20:41:11;9;8;6
44045;PMS7003;29709;52.396;16.796;2023-05-18T20:44:24;8;7;6
44045;PMS7003;29709;52.396;16.796;2023-05-18T20:47:40;7;6;6
44045;PMS7003;29709;52.396;16.796;2023-05-18T20:50:54;6;5;4
44045;PMS7003;29709;52.396;16.796;2023-05-18T20:54:08;6;6;4
44045;PMS7003;29709;52.396;16.796;2023-05-18T20:57:22;7;6;5
44045;PMS7003;29709;52.396;16.796;2023-05-18T21:00:35;5;5;4
44045;PMS7003;29709;52.396;16.796;2023-05-18T21:03:49;4;4;3
44045;PMS7003;29709;52.396;16.796;2023-05-18T21:07:02;5;5;4
44045;PMS7003;29709;52.396;16.796;2023-05-18T21:10:17;6;6;5
44045;PMS7003;29709;52.396;16.796;2023-05-18T21:13:30;6;5;4
44045;PMS7003;29709;52.396;16.796;2023-05-18T21:16:43;10;9;8
44045;PMS7003;29709;52.396;16.796;2023-05-18T21:19:57;8;7;5
44045;PMS7003;29709;52.396;16.796;2023-05-18T21:23:10;11;8;6
44045;PMS7003;29709;52.396;16.796;2023-05-18T21:26:23;8;7;6
44045;PMS7003;29709;52.396;16.796;2023-05-18T21:29:38;7;6;5
44045;PMS7003;29709;52.396;16.796;2023-05-18T21:32:51;4;4;3
44045;PMS7003;29709;52.396;16.796;2023-05-18T21:36:04;3;2;1
44045;PMS7003;29709;52.396;16.796;2023-05-18T21:39:20;3;1;1
44045;PMS7003;29709;52.396;16.796;2023-05-18T21:42:33;2;2;2
44045;PMS7003;29709;52.396;16.796;2023-05-18T21:45:47;2;1;1
44045;PMS7003;29709;52.396;16.796;2023-05-18T21:49:00;1;1;1
44045;PMS7003;29709;52.396;16.796;2023-05-18T21:52:14;1;1;1
44045;PMS7003;29709;52.396;16.796;2023-05-18T21:55:28;1;1;1
44045;PMS7003;29709;52.396;16.796;2023-05-18T21:58:42;1;1;1
44045;PMS7003;29709;52.396;16.796;2023-05-18T22:01:55;1;1;0
44045;PMS7003;29709;52.396;16.796;2023-05-18T22:05:08;2;1;1